M/V Mary Elizabeth — WCX8058 — position and weather

sailwx.info

Track history (hours):
 
Tides and Currents Weather Stations Pressure Air Temp Water Temp Dewpoint Dewpoint Depression Visibility Wind Speed Wind Dir Waves Ship Positions

M/V Mary Elizabeth

Owner: Southern Towing Company, LLC, MEMPHIS, TN. More information available from US FCC via Universal Licensing System and Coast Guard Vessel Documentation Center.

Last reported at 2017-Oct-06 08:15 UTC. Time now 2017-Nov-22 16:46 UTC.
Position N 32°46' W 091°10'.
Warning: this ship's position is 47 days out of date.

Length 43 m; draft 3 m.

Type: Towing. MMSI: 366917120.

Date/timePositionNaut miles runAvg speedWind from/ knotsBaromVisibWave heightAir tempDewpointWater temp
2017-Oct-06 08:15N 32°46' W 091°10'1 2.3
2017-Oct-06 07:59N 32°46' W 091°10'2 2.1
2017-Oct-06 07:15N 32°44' W 091°08'3 3.9
2017-Oct-06 06:25N 32°44' W 091°05'1 1.6
2017-Oct-06 06:00N 32°44' W 091°04'4 1.4
2017-Oct-06 03:14N 32°41' W 091°06'1 2.7
2017-Oct-06 03:00N 32°40' W 091°07'0 0.1
2017-Oct-06 02:30N 32°40' W 091°07'0 0.1
2017-Oct-06 01:57N 32°40' W 091°07'0 0.9
2017-Oct-06 01:30N 32°40' W 091°07'3 3.7
2017-Oct-06 00:37N 32°38' W 091°09'1 5.0
2017-Oct-06 00:30N 32°37' W 091°09'2 4.5
2017-Oct-06 00:01N 32°35' W 091°08'2 3.9
2017-Oct-05 23:28N 32°34' W 091°06'2 3.7
2017-Oct-05 22:59N 32°32' W 091°06'2 5.1
2017-Oct-05 22:30N 32°30' W 091°07'2 4.9
2017-Oct-05 22:00N 32°27' W 091°06'1 1.8
2017-Oct-05 21:31N 32°27' W 091°05'2 3.0
2017-Oct-05 21:00N 32°26' W 091°03'1 2.6
2017-Oct-05 20:31N 32°26' W 091°02'2 3.6
2017-Oct-05 20:01N 32°25' W 090°60'2 3.4
2017-Oct-05 19:30N 32°23' W 090°60'2 3.9
2017-Oct-05 19:01N 32°21' W 090°60'2 4.5
2017-Oct-05 18:31N 32°21' W 090°57'2 3.6
2017-Oct-05 18:00N 32°21' W 090°55'0 0.1
2017-Oct-05 17:31N 32°21' W 090°55'0 0.0
2017-Oct-05 17:01N 32°21' W 090°55'3 1.9
2017-Oct-05 15:30N 32°18' W 090°55'2 4.9
2017-Oct-05 15:00N 32°16' W 090°58'2 3.9
2017-Oct-05 14:30N 32°15' W 090°59'3 5.1
2017-Oct-05 14:00N 32°12' W 090°59'2 4.6
2017-Oct-05 13:30N 32°10' W 091°00'2 4.7
2017-Oct-05 13:01N 32°08' W 091°01'2 4.4
2017-Oct-05 12:30N 32°08' W 091°03'2 4.9
2017-Oct-05 12:01N 32°08' W 091°06'5 3.5
2017-Oct-05 10:40N 32°04' W 091°03'1 4.5
2017-Oct-05 10:31N 32°03' W 091°03'3 5.3
2017-Oct-05 10:00N 32°01' W 091°05'0 0.4
2017-Oct-05 09:30N 32°00' W 091°05'0 0.1
2017-Oct-05 09:01N 32°00' W 091°05'1 2.3
2017-Oct-05 08:30N 31°59' W 091°06'4 4.9
2017-Oct-05 07:43N 31°59' W 091°10'1 5.1
2017-Oct-05 07:30N 31°58' W 091°11'4 5.4
2017-Oct-05 06:48N 31°54' W 091°12'1 4.5
2017-Oct-05 06:30N 31°53' W 091°13'2 3.3
2017-Oct-05 05:54N 31°52' W 091°15'5 3.3
2017-Oct-05 04:21N 31°51' W 091°21'  
2017-Sep-27 21:10N 31°60' W 091°05'6 6.7
2017-Sep-27 20:13N 32°06' W 091°06'1 6.5
2017-Sep-27 20:01N 32°08' W 091°07'2 4.7
2017-Sep-27 19:31N 32°08' W 091°04'3 5.0
2017-Sep-27 19:00N 32°08' W 091°01'3 6.8
2017-Sep-27 18:30N 32°11' W 090°60'4 7.1
2017-Sep-27 18:00N 32°14' W 090°59'4 7.2
2017-Sep-27 17:30N 32°17' W 090°56'3 6.5
2017-Sep-27 17:01N 32°20' W 090°54'3 6.4
2017-Sep-27 16:30N 32°21' W 090°57'3 5.4
2017-Sep-27 16:01N 32°22' W 091°00'3 6.4
2017-Sep-27 15:31N 32°26' W 091°01'3 7.0
2017-Sep-27 15:01N 32°27' W 091°05'3 6.5
2017-Sep-27 14:29N 32°30' W 091°07'4 7.4
2017-Sep-27 14:00N 32°33' W 091°06'3 7.1
2017-Sep-27 13:31N 32°36' W 091°08'4 7.0
2017-Sep-27 12:57N 32°40' W 091°08'4 2.8
2017-Sep-27 11:24N 32°44' W 091°08'  
Track history (hours):
 
Tides and Currents Weather Stations Pressure Air Temp Water Temp Dewpoint Dewpoint Depression Visibility Wind Speed Wind Dir Waves Ship Positions

M/V Mary Elizabeth

Owner: Southern Towing Company, LLC, MEMPHIS, TN. More information available from US FCC via Universal Licensing System and Coast Guard Vessel Documentation Center.

Last reported at 2017-Oct-06 08:15 UTC. Time now 2017-Nov-22 16:46 UTC.
Position N 32°46' W 091°10'.
Warning: this ship's position is 47 days out of date.

Length 43 m; draft 3 m.

Type: Towing. MMSI: 366917120.

Date/timePositionNaut miles runAvg speedWind from/ knotsBaromVisibWave heightAir tempDewpointWater temp
2017-Oct-06 08:15N 32°46' W 091°10'1 2.3
2017-Oct-06 07:59N 32°46' W 091°10'2 2.1
2017-Oct-06 07:15N 32°44' W 091°08'3 3.9
2017-Oct-06 06:25N 32°44' W 091°05'1 1.6
2017-Oct-06 06:00N 32°44' W 091°04'4 1.4
2017-Oct-06 03:14N 32°41' W 091°06'1 2.7
2017-Oct-06 03:00N 32°40' W 091°07'0 0.1
2017-Oct-06 02:30N 32°40' W 091°07'0 0.1
2017-Oct-06 01:57N 32°40' W 091°07'0 0.9
2017-Oct-06 01:30N 32°40' W 091°07'3 3.7
2017-Oct-06 00:37N 32°38' W 091°09'1 5.0
2017-Oct-06 00:30N 32°37' W 091°09'2 4.5
2017-Oct-06 00:01N 32°35' W 091°08'2 3.9
2017-Oct-05 23:28N 32°34' W 091°06'2 3.7
2017-Oct-05 22:59N 32°32' W 091°06'2 5.1
2017-Oct-05 22:30N 32°30' W 091°07'2 4.9
2017-Oct-05 22:00N 32°27' W 091°06'1 1.8
2017-Oct-05 21:31N 32°27' W 091°05'2 3.0
2017-Oct-05 21:00N 32°26' W 091°03'1 2.6
2017-Oct-05 20:31N 32°26' W 091°02'2 3.6
2017-Oct-05 20:01N 32°25' W 090°60'2 3.4
2017-Oct-05 19:30N 32°23' W 090°60'2 3.9
2017-Oct-05 19:01N 32°21' W 090°60'2 4.5
2017-Oct-05 18:31N 32°21' W 090°57'2 3.6
2017-Oct-05 18:00N 32°21' W 090°55'0 0.1
2017-Oct-05 17:31N 32°21' W 090°55'0 0.0
2017-Oct-05 17:01N 32°21' W 090°55'3 1.9
2017-Oct-05 15:30N 32°18' W 090°55'2 4.9
2017-Oct-05 15:00N 32°16' W 090°58'2 3.9
2017-Oct-05 14:30N 32°15' W 090°59'3 5.1
2017-Oct-05 14:00N 32°12' W 090°59'2 4.6
2017-Oct-05 13:30N 32°10' W 091°00'2 4.7
2017-Oct-05 13:01N 32°08' W 091°01'2 4.4
2017-Oct-05 12:30N 32°08' W 091°03'2 4.9
2017-Oct-05 12:01N 32°08' W 091°06'5 3.5
2017-Oct-05 10:40N 32°04' W 091°03'1 4.5
2017-Oct-05 10:31N 32°03' W 091°03'3 5.3
2017-Oct-05 10:00N 32°01' W 091°05'0 0.4
2017-Oct-05 09:30N 32°00' W 091°05'0 0.1
2017-Oct-05 09:01N 32°00' W 091°05'1 2.3
2017-Oct-05 08:30N 31°59' W 091°06'4 4.9
2017-Oct-05 07:43N 31°59' W 091°10'1 5.1
2017-Oct-05 07:30N 31°58' W 091°11'4 5.4
2017-Oct-05 06:48N 31°54' W 091°12'1 4.5
2017-Oct-05 06:30N 31°53' W 091°13'2 3.3
2017-Oct-05 05:54N 31°52' W 091°15'5 3.3
2017-Oct-05 04:21N 31°51' W 091°21'  
2017-Sep-27 21:10N 31°60' W 091°05'6 6.7
2017-Sep-27 20:13N 32°06' W 091°06'1 6.5
2017-Sep-27 20:01N 32°08' W 091°07'2 4.7
2017-Sep-27 19:31N 32°08' W 091°04'3 5.0
2017-Sep-27 19:00N 32°08' W 091°01'3 6.8
2017-Sep-27 18:30N 32°11' W 090°60'4 7.1
2017-Sep-27 18:00N 32°14' W 090°59'4 7.2
2017-Sep-27 17:30N 32°17' W 090°56'3 6.5
2017-Sep-27 17:01N 32°20' W 090°54'3 6.4
2017-Sep-27 16:30N 32°21' W 090°57'3 5.4
2017-Sep-27 16:01N 32°22' W 091°00'3 6.4
2017-Sep-27 15:31N 32°26' W 091°01'3 7.0
2017-Sep-27 15:01N 32°27' W 091°05'3 6.5
2017-Sep-27 14:29N 32°30' W 091°07'4 7.4
2017-Sep-27 14:00N 32°33' W 091°06'3 7.1
2017-Sep-27 13:31N 32°36' W 091°08'4 7.0
2017-Sep-27 12:57N 32°40' W 091°08'4 2.8
2017-Sep-27 11:24N 32°44' W 091°08'  

Dump ship's entire track history